sensor_id;sensor_type;location;lat;lon;timestamp;P1;durP1;ratioP1;P2;durP2;ratioP2
28547;SDS011;15750;49.600;8.746;2022-10-01T00:00:57;7.80;;;6.73;;
28547;SDS011;15750;49.600;8.746;2022-10-01T00:03:46;8.20;;;6.90;;
28547;SDS011;15750;49.600;8.746;2022-10-01T00:06:33;8.07;;;7.27;;
28547;SDS011;15750;49.600;8.746;2022-10-01T00:09:20;11.40;;;6.47;;
28547;SDS011;15750;49.600;8.746;2022-10-01T00:12:07;7.97;;;7.17;;
28547;SDS011;15750;49.600;8.746;2022-10-01T00:14:54;7.43;;;6.77;;
28547;SDS011;15750;49.600;8.746;2022-10-01T00:17:42;7.87;;;7.07;;
28547;SDS011;15750;49.600;8.746;2022-10-01T00:20:30;7.20;;;6.50;;
28547;SDS011;15750;49.600;8.746;2022-10-01T00:23:18;7.40;;;6.70;;
28547;SDS011;15750;49.600;8.746;2022-10-01T00:26:09;6.87;;;6.17;;
28547;SDS011;15750;49.600;8.746;2022-10-01T00:28:59;7.03;;;6.43;;
28547;SDS011;15750;49.600;8.746;2022-10-01T00:31:48;7.83;;;7.20;;
28547;SDS011;15750;49.600;8.746;2022-10-01T00:34:36;9.13;;;6.60;;
28547;SDS011;15750;49.600;8.746;2022-10-01T00:37:24;6.90;;;6.20;;
28547;SDS011;15750;49.600;8.746;2022-10-01T00:40:12;7.27;;;6.57;;
28547;SDS011;15750;49.600;8.746;2022-10-01T00:42:59;7.63;;;6.93;;
28547;SDS011;15750;49.600;8.746;2022-10-01T00:45:46;10.77;;;7.10;;
28547;SDS011;15750;49.600;8.746;2022-10-01T00:48:35;6.47;;;5.87;;
28547;SDS011;15750;49.600;8.746;2022-10-01T00:51:31;7.00;;;5.80;;
28547;SDS011;15750;49.600;8.746;2022-10-01T00:54:23;5.60;;;5.10;;
28547;SDS011;15750;49.600;8.746;2022-10-01T00:57:18;5.70;;;5.10;;
28547;SDS011;15750;49.600;8.746;2022-10-01T01:00:10;5.63;;;5.20;;
28547;SDS011;15750;49.600;8.746;2022-10-01T01:02:58;5.83;;;5.30;;
28547;SDS011;15750;49.600;8.746;2022-10-01T01:05:45;5.57;;;5.07;;
28547;SDS011;15750;49.600;8.746;2022-10-01T01:08:34;5.47;;;4.97;;
28547;SDS011;15750;49.600;8.746;2022-10-01T01:11:26;4.77;;;4.37;;
28547;SDS011;15750;49.600;8.746;2022-10-01T01:14:22;4.73;;;4.33;;
28547;SDS011;15750;49.600;8.746;2022-10-01T01:17:17;4.83;;;4.43;;
28547;SDS011;15750;49.600;8.746;2022-10-01T01:20:14;5.50;;;3.93;;
28547;SDS011;15750;49.600;8.746;2022-10-01T01:27:09;4.90;;;3.60;;
28547;SDS011;15750;49.600;8.746;2022-10-01T01:30:14;5.40;;;3.83;;
28547;SDS011;15750;49.600;8.746;2022-10-01T01:33:03;3.20;;;3.00;;
28547;SDS011;15750;49.600;8.746;2022-10-01T01:35:57;4.93;;;3.23;;
28547;SDS011;15750;49.600;8.746;2022-10-01T01:38:50;3.50;;;3.03;;
28547;SDS011;15750;49.600;8.746;2022-10-01T01:41:43;3.87;;;3.40;;
28547;SDS011;15750;49.600;8.746;2022-10-01T01:44:38;3.40;;;3.10;;
28547;SDS011;15750;49.600;8.746;2022-10-01T01:47:31;3.03;;;2.83;;
28547;SDS011;15750;49.600;8.746;2022-10-01T01:50:20;2.90;;;2.60;;
28547;SDS011;15750;49.600;8.746;2022-10-01T01:53:09;3.43;;;3.13;;
28547;SDS011;15750;49.600;8.746;2022-10-01T01:55:57;2.90;;;2.70;;
28547;SDS011;15750;49.600;8.746;2022-10-01T01:58:46;4.03;;;2.77;;
28547;SDS011;15750;49.600;8.746;2022-10-01T02:01:37;4.03;;;3.00;;
28547;SDS011;15750;49.600;8.746;2022-10-01T02:04:29;3.50;;;3.20;;
28547;SDS011;15750;49.600;8.746;2022-10-01T02:11:02;3.50;;;3.00;;
28547;SDS011;15750;49.600;8.746;2022-10-01T02:14:02;3.20;;;2.90;;
28547;SDS011;15750;49.600;8.746;2022-10-01T02:16:58;2.90;;;2.70;;
28547;SDS011;15750;49.600;8.746;2022-10-01T02:19:53;3.20;;;2.97;;
28547;SDS011;15750;49.600;8.746;2022-10-01T02:22:46;3.60;;;2.90;;
28547;SDS011;15750;49.600;8.746;2022-10-01T02:25:38;2.90;;;2.70;;
28547;SDS011;15750;49.600;8.746;2022-10-01T02:28:30;3.37;;;3.07;;
28547;SDS011;15750;49.600;8.746;2022-10-01T02:31:19;7.30;;;3.00;;
28547;SDS011;15750;49.600;8.746;2022-10-01T02:34:09;3.93;;;2.63;;
28547;SDS011;15750;49.600;8.746;2022-10-01T02:37:05;3.03;;;2.80;;
28547;SDS011;15750;49.600;8.746;2022-10-01T02:39:55;4.83;;;2.70;;
28547;SDS011;15750;49.600;8.746;2022-10-01T02:42:45;3.87;;;2.83;;
28547;SDS011;15750;49.600;8.746;2022-10-01T02:45:36;2.85;;;2.60;;
28547;SDS011;15750;49.600;8.746;2022-10-01T02:48:26;3.30;;;2.60;;
28547;SDS011;15750;49.600;8.746;2022-10-01T02:51:17;2.97;;;2.67;;
28547;SDS011;15750;49.600;8.746;2022-10-01T02:54:15;2.93;;;2.63;;
28547;SDS011;15750;49.600;8.746;2022-10-01T02:57:06;3.17;;;2.77;;
28547;SDS011;15750;49.600;8.746;2022-10-01T03:00:12;2.97;;;2.50;;
28547;SDS011;15750;49.600;8.746;2022-10-01T03:03:05;3.10;;;2.80;;
28547;SDS011;15750;49.600;8.746;2022-10-01T03:05:52;2.93;;;2.60;;
28547;SDS011;15750;49.600;8.746;2022-10-01T03:08:39;2.67;;;2.47;;
28547;SDS011;15750;49.600;8.746;2022-10-01T03:11:28;2.93;;;2.73;;
28547;SDS011;15750;49.600;8.746;2022-10-01T03:14:16;3.10;;;2.73;;
28547;SDS011;15750;49.600;8.746;2022-10-01T03:17:03;2.80;;;2.40;;
28547;SDS011;15750;49.600;8.746;2022-10-01T03:19:51;3.63;;;2.43;;
28547;SDS011;15750;49.600;8.746;2022-10-01T03:22:38;2.43;;;2.20;;
28547;SDS011;15750;49.600;8.746;2022-10-01T03:25:26;3.97;;;2.60;;
28547;SDS011;15750;49.600;8.746;2022-10-01T03:28:14;2.80;;;2.60;;
28547;SDS011;15750;49.600;8.746;2022-10-01T03:31:06;2.60;;;2.40;;
28547;SDS011;15750;49.600;8.746;2022-10-01T03:33:54;2.00;;;1.90;;
28547;SDS011;15750;49.600;8.746;2022-10-01T03:36:44;2.63;;;2.43;;
28547;SDS011;15750;49.600;8.746;2022-10-01T03:39:32;2.13;;;1.93;;
28547;SDS011;15750;49.600;8.746;2022-10-01T03:42:20;3.00;;;2.20;;
28547;SDS011;15750;49.600;8.746;2022-10-01T03:45:09;2.17;;;2.07;;
28547;SDS011;15750;49.600;8.746;2022-10-01T03:47:56;3.17;;;2.10;;
28547;SDS011;15750;49.600;8.746;2022-10-01T03:50:50;2.20;;;2.00;;
28547;SDS011;15750;49.600;8.746;2022-10-01T03:53:39;1.93;;;1.60;;
28547;SDS011;15750;49.600;8.746;2022-10-01T03:56:26;1.83;;;1.73;;
28547;SDS011;15750;49.600;8.746;2022-10-01T03:59:14;2.40;;;2.20;;
28547;SDS011;15750;49.600;8.746;2022-10-01T04:02:02;2.13;;;1.93;;
28547;SDS011;15750;49.600;8.746;2022-10-01T04:04:50;1.80;;;1.70;;
28547;SDS011;15750;49.600;8.746;2022-10-01T04:07:37;2.40;;;1.97;;
28547;SDS011;15750;49.600;8.746;2022-10-01T04:10:26;3.83;;;2.03;;
28547;SDS011;15750;49.600;8.746;2022-10-01T04:13:13;2.03;;;1.70;;
28547;SDS011;15750;49.600;8.746;2022-10-01T04:16:01;2.23;;;1.70;;
28547;SDS011;15750;49.600;8.746;2022-10-01T04:18:51;2.07;;;1.80;;
28547;SDS011;15750;49.600;8.746;2022-10-01T04:21:39;2.20;;;2.00;;
28547;SDS011;15750;49.600;8.746;2022-10-01T04:24:26;2.87;;;1.73;;
28547;SDS011;15750;49.600;8.746;2022-10-01T04:27:13;2.00;;;1.90;;
28547;SDS011;15750;49.600;8.746;2022-10-01T04:30:01;2.10;;;1.90;;
28547;SDS011;15750;49.600;8.746;2022-10-01T04:32:48;4.63;;;1.80;;
28547;SDS011;15750;49.600;8.746;2022-10-01T04:35:37;2.93;;;1.97;;
28547;SDS011;15750;49.600;8.746;2022-10-01T04:38:24;2.00;;;1.90;;
28547;SDS011;15750;49.600;8.746;2022-10-01T04:41:11;3.13;;;2.00;;
28547;SDS011;15750;49.600;8.746;2022-10-01T04:43:59;3.23;;;1.93;;
28547;SDS011;15750;49.600;8.746;2022-10-01T04:46:46;5.13;;;2.00;;
28547;SDS011;15750;49.600;8.746;2022-10-01T04:49:33;5.07;;;1.88;;
28547;SDS011;15750;49.600;8.746;2022-10-01T04:52:22;2.10;;;1.87;;
28547;SDS011;15750;49.600;8.746;2022-10-01T04:55:09;2.37;;;2.17;;
28547;SDS011;15750;49.600;8.746;2022-10-01T04:57:57;2.90;;;2.50;;
28547;SDS011;15750;49.600;8.746;2022-10-01T05:00:44;3.03;;;2.57;;
28547;SDS011;15750;49.600;8.746;2022-10-01T05:03:31;2.80;;;2.20;;
28547;SDS011;15750;49.600;8.746;2022-10-01T05:06:18;2.00;;;1.90;;
28547;SDS011;15750;49.600;8.746;2022-10-01T05:09:07;2.55;;;2.10;;
28547;SDS011;15750;49.600;8.746;2022-10-01T05:11:54;2.67;;;1.92;;
28547;SDS011;15750;49.600;8.746;2022-10-01T05:14:42;2.40;;;2.20;;
28547;SDS011;15750;49.600;8.746;2022-10-01T05:17:29;2.63;;;2.33;;
28547;SDS011;15750;49.600;8.746;2022-10-01T05:20:18;2.47;;;2.10;;
28547;SDS011;15750;49.600;8.746;2022-10-01T05:23:07;4.20;;;2.00;;
28547;SDS011;15750;49.600;8.746;2022-10-01T05:25:56;1.85;;;1.70;;
28547;SDS011;15750;49.600;8.746;2022-10-01T05:28:43;3.37;;;2.17;;
28547;SDS011;15750;49.600;8.746;2022-10-01T05:31:31;2.30;;;2.10;;
28547;SDS011;15750;49.600;8.746;2022-10-01T05:34:19;1.90;;;1.80;;
28547;SDS011;15750;49.600;8.746;2022-10-01T05:37:07;2.27;;;2.07;;
28547;SDS011;15750;49.600;8.746;2022-10-01T05:39:56;4.27;;;2.80;;
28547;SDS011;15750;49.600;8.746;2022-10-01T05:42:45;3.07;;;2.20;;
28547;SDS011;15750;49.600;8.746;2022-10-01T05:45:33;2.50;;;2.30;;
28547;SDS011;15750;49.600;8.746;2022-10-01T05:48:20;2.50;;;2.13;;
28547;SDS011;15750;49.600;8.746;2022-10-01T05:51:07;2.73;;;2.37;;
28547;SDS011;15750;49.600;8.746;2022-10-01T05:53:55;2.23;;;2.10;;
28547;SDS011;15750;49.600;8.746;2022-10-01T05:56:45;2.43;;;2.20;;
28547;SDS011;15750;49.600;8.746;2022-10-01T05:59:34;2.53;;;1.77;;
28547;SDS011;15750;49.600;8.746;2022-10-01T06:02:21;3.70;;;2.50;;
28547;SDS011;15750;49.600;8.746;2022-10-01T06:04:52;2.17;;;2.07;;
28547;SDS011;15750;49.600;8.746;2022-10-01T06:07:21;2.30;;;2.10;;
28547;SDS011;15750;49.600;8.746;2022-10-01T06:09:50;2.53;;;2.10;;
28547;SDS011;15750;49.600;8.746;2022-10-01T06:12:18;2.30;;;2.10;;
28547;SDS011;15750;49.600;8.746;2022-10-01T06:14:48;2.20;;;2.00;;
28547;SDS011;15750;49.600;8.746;2022-10-01T06:17:17;6.53;;;2.20;;
28547;SDS011;15750;49.600;8.746;2022-10-01T06:19:45;2.47;;;2.10;;
28547;SDS011;15750;49.600;8.746;2022-10-01T06:22:14;2.00;;;1.90;;
28547;SDS011;15750;49.600;8.746;2022-10-01T06:24:43;2.13;;;1.90;;
28547;SDS011;15750;49.600;8.746;2022-10-01T06:27:11;2.10;;;1.90;;
28547;SDS011;15750;49.600;8.746;2022-10-01T06:29:40;2.57;;;2.17;;
28547;SDS011;15750;49.600;8.746;2022-10-01T06:32:10;5.10;;;2.10;;
28547;SDS011;15750;49.600;8.746;2022-10-01T06:34:44;2.93;;;2.20;;
28547;SDS011;15750;49.600;8.746;2022-10-01T06:37:13;3.17;;;2.07;;
28547;SDS011;15750;49.600;8.746;2022-10-01T06:39:41;2.10;;;2.00;;
28547;SDS011;15750;49.600;8.746;2022-10-01T06:42:10;2.23;;;2.00;;
28547;SDS011;15750;49.600;8.746;2022-10-01T06:44:39;2.27;;;2.07;;
28547;SDS011;15750;49.600;8.746;2022-10-01T06:47:08;3.07;;;2.13;;
28547;SDS011;15750;49.600;8.746;2022-10-01T06:49:38;2.83;;;1.90;;
28547;SDS011;15750;49.600;8.746;2022-10-01T06:52:12;2.27;;;2.07;;
28547;SDS011;15750;49.600;8.746;2022-10-01T06:54:59;2.30;;;2.07;;
28547;SDS011;15750;49.600;8.746;2022-10-01T06:57:28;2.53;;;2.20;;
28547;SDS011;15750;49.600;8.746;2022-10-01T06:59:59;2.77;;;2.00;;
28547;SDS011;15750;49.600;8.746;2022-10-01T07:02:30;3.17;;;2.30;;
28547;SDS011;15750;49.600;8.746;2022-10-01T07:04:59;2.17;;;1.97;;
28547;SDS011;15750;49.600;8.746;2022-10-01T07:07:28;2.77;;;2.17;;
28547;SDS011;15750;49.600;8.746;2022-10-01T07:09:57;2.13;;;1.93;;
28547;SDS011;15750;49.600;8.746;2022-10-01T07:12:26;2.47;;;2.27;;
28547;SDS011;15750;49.600;8.746;2022-10-01T07:14:55;3.15;;;2.55;;
28547;SDS011;15750;49.600;8.746;2022-10-01T07:17:24;1.80;;;1.70;;
28547;SDS011;15750;49.600;8.746;2022-10-01T07:19:54;1.93;;;1.83;;
28547;SDS011;15750;49.600;8.746;2022-10-01T07:22:22;2.30;;;2.10;;
28547;SDS011;15750;49.600;8.746;2022-10-01T07:24:51;2.40;;;2.20;;
28547;SDS011;15750;49.600;8.746;2022-10-01T07:27:20;2.10;;;1.90;;
28547;SDS011;15750;49.600;8.746;2022-10-01T07:29:49;2.83;;;1.90;;
28547;SDS011;15750;49.600;8.746;2022-10-01T07:32:18;2.33;;;2.10;;
28547;SDS011;15750;49.600;8.746;2022-10-01T07:34:47;2.05;;;1.95;;
28547;SDS011;15750;49.600;8.746;2022-10-01T07:37:17;1.80;;;1.70;;
28547;SDS011;15750;49.600;8.746;2022-10-01T07:39:47;2.43;;;1.93;;
28547;SDS011;15750;49.600;8.746;2022-10-01T07:42:15;3.53;;;2.07;;
28547;SDS011;15750;49.600;8.746;2022-10-01T07:44:44;2.10;;;1.90;;
28547;SDS011;15750;49.600;8.746;2022-10-01T07:47:13;2.27;;;2.07;;
28547;SDS011;15750;49.600;8.746;2022-10-01T07:49:41;2.97;;;1.83;;
28547;SDS011;15750;49.600;8.746;2022-10-01T07:52:10;2.33;;;2.13;;
28547;SDS011;15750;49.600;8.746;2022-10-01T07:54:40;2.17;;;2.07;;
28547;SDS011;15750;49.600;8.746;2022-10-01T07:57:09;2.33;;;2.13;;
28547;SDS011;15750;49.600;8.746;2022-10-01T07:59:37;2.63;;;1.90;;
28547;SDS011;15750;49.600;8.746;2022-10-01T08:02:09;2.03;;;1.93;;
28547;SDS011;15750;49.600;8.746;2022-10-01T08:04:41;2.07;;;1.93;;
28547;SDS011;15750;49.600;8.746;2022-10-01T08:07:29;2.77;;;2.17;;
28547;SDS011;15750;49.600;8.746;2022-10-01T08:09:59;2.63;;;2.10;;
28547;SDS011;15750;49.600;8.746;2022-10-01T08:12:30;2.40;;;2.20;;
28547;SDS011;15750;49.600;8.746;2022-10-01T08:14:58;2.73;;;2.10;;
28547;SDS011;15750;49.600;8.746;2022-10-01T08:17:27;2.33;;;1.93;;
28547;SDS011;15750;49.600;8.746;2022-10-01T08:19:56;1.90;;;1.80;;
28547;SDS011;15750;49.600;8.746;2022-10-01T08:22:24;1.90;;;1.80;;
28547;SDS011;15750;49.600;8.746;2022-10-01T08:24:53;2.20;;;2.00;;
28547;SDS011;15750;49.600;8.746;2022-10-01T08:27:23;3.13;;;1.80;;
28547;SDS011;15750;49.600;8.746;2022-10-01T08:29:52;1.70;;;1.60;;
28547;SDS011;15750;49.600;8.746;2022-10-01T08:32:21;1.63;;;1.50;;
28547;SDS011;15750;49.600;8.746;2022-10-01T08:34:53;2.00;;;1.80;;
28547;SDS011;15750;49.600;8.746;2022-10-01T08:37:23;2.27;;;1.87;;
28547;SDS011;15750;49.600;8.746;2022-10-01T08:39:53;3.13;;;1.80;;
28547;SDS011;15750;49.600;8.746;2022-10-01T08:42:33;1.97;;;1.87;;
28547;SDS011;15750;49.600;8.746;2022-10-01T08:45:18;2.30;;;1.70;;
28547;SDS011;15750;49.600;8.746;2022-10-01T08:47:53;1.50;;;1.40;;
28547;SDS011;15750;49.600;8.746;2022-10-01T08:50:34;1.90;;;1.80;;
28547;SDS011;15750;49.600;8.746;2022-10-01T08:53:10;1.87;;;1.40;;
28547;SDS011;15750;49.600;8.746;2022-10-01T08:55:48;1.57;;;1.43;;
28547;SDS011;15750;49.600;8.746;2022-10-01T08:58:22;2.30;;;1.67;;
28547;SDS011;15750;49.600;8.746;2022-10-01T09:00:56;1.67;;;1.57;;
28547;SDS011;15750;49.600;8.746;2022-10-01T09:03:24;1.52;;;1.42;;
28547;SDS011;15750;49.600;8.746;2022-10-01T09:06:01;1.60;;;1.50;;
28547;SDS011;15750;49.600;8.746;2022-10-01T09:08:45;3.77;;;1.83;;
28547;SDS011;15750;49.600;8.746;2022-10-01T09:11:39;1.57;;;1.47;;
28547;SDS011;15750;49.600;8.746;2022-10-01T09:14:35;2.10;;;1.33;;
28547;SDS011;15750;49.600;8.746;2022-10-01T09:17:22;1.60;;;1.50;;
28547;SDS011;15750;49.600;8.746;2022-10-01T09:20:10;4.00;;;1.60;;
28547;SDS011;15750;49.600;8.746;2022-10-01T09:22:49;1.53;;;1.43;;
28547;SDS011;15750;49.600;8.746;2022-10-01T09:25:31;1.77;;;1.60;;
28547;SDS011;15750;49.600;8.746;2022-10-01T09:28:06;2.47;;;1.67;;
28547;SDS011;15750;49.600;8.746;2022-10-01T09:30:43;1.60;;;1.50;;
28547;SDS011;15750;49.600;8.746;2022-10-01T09:33:23;1.70;;;1.60;;
28547;SDS011;15750;49.600;8.746;2022-10-01T09:35:59;3.63;;;3.33;;
28547;SDS011;15750;49.600;8.746;2022-10-01T09:38:39;2.80;;;2.60;;
28547;SDS011;15750;49.600;8.746;2022-10-01T09:41:10;4.60;;;4.30;;
28547;SDS011;15750;49.600;8.746;2022-10-01T09:43:40;2.40;;;2.20;;
28547;SDS011;15750;49.600;8.746;2022-10-01T09:46:12;2.47;;;1.83;;
28547;SDS011;15750;49.600;8.746;2022-10-01T09:48:43;4.93;;;2.87;;
28547;SDS011;15750;49.600;8.746;2022-10-01T09:51:24;2.43;;;2.23;;
28547;SDS011;15750;49.600;8.746;2022-10-01T09:54:08;2.20;;;2.00;;
28547;SDS011;15750;49.600;8.746;2022-10-01T09:56:44;2.33;;;1.90;;
28547;SDS011;15750;49.600;8.746;2022-10-01T09:59:19;2.07;;;1.87;;
28547;SDS011;15750;49.600;8.746;2022-10-01T10:01:56;1.97;;;1.77;;
28547;SDS011;15750;49.600;8.746;2022-10-01T10:04:26;2.97;;;2.77;;
28547;SDS011;15750;49.600;8.746;2022-10-01T10:06:58;3.33;;;3.03;;
28547;SDS011;15750;49.600;8.746;2022-10-01T10:09:29;6.53;;;5.93;;
28547;SDS011;15750;49.600;8.746;2022-10-01T10:12:03;5.13;;;4.70;;
28547;SDS011;15750;49.600;8.746;2022-10-01T10:14:34;8.20;;;7.40;;
28547;SDS011;15750;49.600;8.746;2022-10-01T10:17:10;11.13;;;10.33;;
28547;SDS011;15750;49.600;8.746;2022-10-01T10:19:45;6.60;;;6.00;;
28547;SDS011;15750;49.600;8.746;2022-10-01T10:22:19;10.40;;;8.03;;
28547;SDS011;15750;49.600;8.746;2022-10-01T10:24:50;7.13;;;5.93;;
28547;SDS011;15750;49.600;8.746;2022-10-01T10:27:21;6.03;;;5.43;;
28547;SDS011;15750;49.600;8.746;2022-10-01T10:30:00;3.60;;;3.30;;
28547;SDS011;15750;49.600;8.746;2022-10-01T10:32:33;3.60;;;3.30;;
28547;SDS011;15750;49.600;8.746;2022-10-01T10:35:02;2.73;;;2.53;;
28547;SDS011;15750;49.600;8.746;2022-10-01T10:37:43;10.67;;;9.77;;
28547;SDS011;15750;49.600;8.746;2022-10-01T10:40:16;4.70;;;4.17;;
28547;SDS011;15750;49.600;8.746;2022-10-01T10:42:53;3.47;;;3.17;;
28547;SDS011;15750;49.600;8.746;2022-10-01T10:45:28;3.90;;;3.50;;
28547;SDS011;15750;49.600;8.746;2022-10-01T10:48:00;5.00;;;3.00;;
28547;SDS011;15750;49.600;8.746;2022-10-01T10:50:32;2.40;;;2.17;;
28547;SDS011;15750;49.600;8.746;2022-10-01T10:53:10;2.45;;;2.25;;
28547;SDS011;15750;49.600;8.746;2022-10-01T10:55:55;3.63;;;3.33;;
28547;SDS011;15750;49.600;8.746;2022-10-01T10:58:27;3.40;;;3.10;;
28547;SDS011;15750;49.600;8.746;2022-10-01T11:00:59;3.43;;;2.50;;
28547;SDS011;15750;49.600;8.746;2022-10-01T11:03:35;2.00;;;1.90;;
28547;SDS011;15750;49.600;8.746;2022-10-01T11:06:10;2.23;;;2.03;;
28547;SDS011;15750;49.600;8.746;2022-10-01T11:08:41;1.73;;;1.63;;
28547;SDS011;15750;49.600;8.746;2022-10-01T11:11:14;1.83;;;1.73;;
28547;SDS011;15750;49.600;8.746;2022-10-01T11:14:06;4.70;;;4.20;;
28547;SDS011;15750;49.600;8.746;2022-10-01T11:16:53;4.03;;;3.33;;
28547;SDS011;15750;49.600;8.746;2022-10-01T11:19:46;2.53;;;2.07;;
28547;SDS011;15750;49.600;8.746;2022-10-01T11:22:34;1.97;;;1.50;;
28547;SDS011;15750;49.600;8.746;2022-10-01T11:25:19;1.97;;;1.43;;
28547;SDS011;15750;49.600;8.746;2022-10-01T11:28:04;1.57;;;1.40;;
28547;SDS011;15750;49.600;8.746;2022-10-01T11:30:49;1.73;;;1.60;;
28547;SDS011;15750;49.600;8.746;2022-10-01T11:33:27;1.63;;;1.47;;
28547;SDS011;15750;49.600;8.746;2022-10-01T11:36:14;1.80;;;1.70;;
28547;SDS011;15750;49.600;8.746;2022-10-01T11:38:52;2.80;;;1.80;;
28547;SDS011;15750;49.600;8.746;2022-10-01T11:41:26;2.00;;;1.87;;
28547;SDS011;15750;49.600;8.746;2022-10-01T11:43:59;1.95;;;1.75;;
28547;SDS011;15750;49.600;8.746;2022-10-01T11:46:36;2.40;;;2.20;;
28547;SDS011;15750;49.600;8.746;2022-10-01T11:49:21;2.00;;;1.80;;
28547;SDS011;15750;49.600;8.746;2022-10-01T11:52:17;2.83;;;2.63;;
28547;SDS011;15750;49.600;8.746;2022-10-01T11:55:01;2.90;;;2.70;;
28547;SDS011;15750;49.600;8.746;2022-10-01T11:57:57;2.50;;;2.30;;
28547;SDS011;15750;49.600;8.746;2022-10-01T12:00:53;2.63;;;2.42;;
28547;SDS011;15750;49.600;8.746;2022-10-01T12:03:34;2.27;;;2.07;;
28547;SDS011;15750;49.600;8.746;2022-10-01T12:06:12;1.67;;;1.57;;
28547;SDS011;15750;49.600;8.746;2022-10-01T12:08:48;2.03;;;1.50;;
28547;SDS011;15750;49.600;8.746;2022-10-01T12:11:22;2.37;;;1.43;;
28547;SDS011;15750;49.600;8.746;2022-10-01T12:13:57;1.63;;;1.53;;
28547;SDS011;15750;49.600;8.746;2022-10-01T12:16:32;1.90;;;1.60;;
28547;SDS011;15750;49.600;8.746;2022-10-01T12:19:12;1.60;;;1.50;;
28547;SDS011;15750;49.600;8.746;2022-10-01T12:21:49;1.50;;;1.30;;
28547;SDS011;15750;49.600;8.746;2022-10-01T12:24:26;1.60;;;1.43;;
28547;SDS011;15750;49.600;8.746;2022-10-01T12:27:03;1.40;;;1.30;;
28547;SDS011;15750;49.600;8.746;2022-10-01T12:30:04;1.50;;;1.40;;
28547;SDS011;15750;49.600;8.746;2022-10-01T12:32:41;1.50;;;1.40;;
28547;SDS011;15750;49.600;8.746;2022-10-01T12:35:33;1.90;;;1.33;;
28547;SDS011;15750;49.600;8.746;2022-10-01T12:38:25;1.40;;;1.30;;
28547;SDS011;15750;49.600;8.746;2022-10-01T12:41:09;1.88;;;1.55;;
28547;SDS011;15750;49.600;8.746;2022-10-01T12:44:03;1.23;;;1.13;;
28547;SDS011;15750;49.600;8.746;2022-10-01T12:46:57;1.53;;;1.43;;
28547;SDS011;15750;49.600;8.746;2022-10-01T12:49:45;1.60;;;1.50;;
28547;SDS011;15750;49.600;8.746;2022-10-01T12:52:25;1.67;;;1.53;;
28547;SDS011;15750;49.600;8.746;2022-10-01T12:55:12;2.55;;;1.30;;
28547;SDS011;15750;49.600;8.746;2022-10-01T12:57:56;1.60;;;1.50;;
28547;SDS011;15750;49.600;8.746;2022-10-01T13:00:33;2.30;;;2.10;;
28547;SDS011;15750;49.600;8.746;2022-10-01T13:03:16;1.77;;;1.57;;
28547;SDS011;15750;49.600;8.746;2022-10-01T13:06:07;2.45;;;1.60;;
28547;SDS011;15750;49.600;8.746;2022-10-01T13:08:58;3.80;;;2.00;;
28547;SDS011;15750;49.600;8.746;2022-10-01T13:14:33;2.97;;;2.60;;
28547;SDS011;15750;49.600;8.746;2022-10-01T13:17:04;3.63;;;2.17;;
28547;SDS011;15750;49.600;8.746;2022-10-01T13:19:40;3.00;;;2.80;;
28547;SDS011;15750;49.600;8.746;2022-10-01T13:22:14;2.50;;;2.30;;
28547;SDS011;15750;49.600;8.746;2022-10-01T13:24:54;2.03;;;1.70;;
28547;SDS011;15750;49.600;8.746;2022-10-01T13:27:32;2.50;;;2.30;;
28547;SDS011;15750;49.600;8.746;2022-10-01T13:30:13;1.90;;;1.80;;
28547;SDS011;15750;49.600;8.746;2022-10-01T13:32:49;2.65;;;1.70;;
28547;SDS011;15750;49.600;8.746;2022-10-01T13:35:21;1.80;;;1.67;;
28547;SDS011;15750;49.600;8.746;2022-10-01T13:38:00;3.13;;;1.83;;
28547;SDS011;15750;49.600;8.746;2022-10-01T13:40:40;3.43;;;2.27;;
28547;SDS011;15750;49.600;8.746;2022-10-01T13:43:13;4.82;;;3.55;;
28547;SDS011;15750;49.600;8.746;2022-10-01T13:45:48;3.47;;;2.20;;
28547;SDS011;15750;49.600;8.746;2022-10-01T13:48:20;1.67;;;1.58;;
28547;SDS011;15750;49.600;8.746;2022-10-01T13:50:57;2.33;;;2.08;;
28547;SDS011;15750;49.600;8.746;2022-10-01T13:53:30;1.40;;;1.30;;
28547;SDS011;15750;49.600;8.746;2022-10-01T13:56:03;1.77;;;1.60;;
28547;SDS011;15750;49.600;8.746;2022-10-01T13:58:35;2.35;;;1.70;;
28547;SDS011;15750;49.600;8.746;2022-10-01T14:01:24;3.47;;;1.50;;
28547;SDS011;15750;49.600;8.746;2022-10-01T14:04:03;1.80;;;1.67;;
28547;SDS011;15750;49.600;8.746;2022-10-01T14:06:42;1.50;;;1.40;;
28547;SDS011;15750;49.600;8.746;2022-10-01T14:09:18;1.98;;;1.70;;
28547;SDS011;15750;49.600;8.746;2022-10-01T14:11:51;2.13;;;1.50;;
28547;SDS011;15750;49.600;8.746;2022-10-01T14:14:42;1.98;;;1.45;;
28547;SDS011;15750;49.600;8.746;2022-10-01T14:17:37;1.83;;;1.63;;
28547;SDS011;15750;49.600;8.746;2022-10-01T14:20:06;1.52;;;1.42;;
28547;SDS011;15750;49.600;8.746;2022-10-01T14:22:43;2.40;;;1.43;;
28547;SDS011;15750;49.600;8.746;2022-10-01T14:25:34;1.77;;;1.48;;
28547;SDS011;15750;49.600;8.746;2022-10-01T14:28:23;1.70;;;1.60;;
28547;SDS011;15750;49.600;8.746;2022-10-01T14:31:11;2.80;;;1.75;;
28547;SDS011;15750;49.600;8.746;2022-10-01T14:37:14;2.40;;;1.70;;
28547;SDS011;15750;49.600;8.746;2022-10-01T14:39:44;1.85;;;1.40;;
28547;SDS011;15750;49.600;8.746;2022-10-01T14:42:14;1.27;;;1.20;;
28547;SDS011;15750;49.600;8.746;2022-10-01T14:44:44;2.10;;;1.40;;
28547;SDS011;15750;49.600;8.746;2022-10-01T14:47:16;1.70;;;1.55;;
28547;SDS011;15750;49.600;8.746;2022-10-01T14:49:48;2.55;;;1.55;;
28547;SDS011;15750;49.600;8.746;2022-10-01T14:52:23;2.10;;;1.50;;
28547;SDS011;15750;49.600;8.746;2022-10-01T14:54:56;2.20;;;1.40;;
28547;SDS011;15750;49.600;8.746;2022-10-01T14:57:29;1.90;;;1.73;;
28547;SDS011;15750;49.600;8.746;2022-10-01T15:00:03;3.60;;;1.83;;
28547;SDS011;15750;49.600;8.746;2022-10-01T15:02:42;3.10;;;1.30;;
28547;SDS011;15750;49.600;8.746;2022-10-01T15:05:16;1.40;;;1.30;;
28547;SDS011;15750;49.600;8.746;2022-10-01T15:07:49;3.20;;;1.35;;
28547;SDS011;15750;49.600;8.746;2022-10-01T15:10:19;1.58;;;1.13;;
28547;SDS011;15750;49.600;8.746;2022-10-01T15:12:51;1.77;;;1.35;;
28547;SDS011;15750;49.600;8.746;2022-10-01T15:15:23;1.40;;;1.30;;
28547;SDS011;15750;49.600;8.746;2022-10-01T15:17:56;1.90;;;1.45;;
28547;SDS011;15750;49.600;8.746;2022-10-01T15:20:26;2.22;;;1.50;;
28547;SDS011;15750;49.600;8.746;2022-10-01T15:22:55;1.52;;;1.40;;
28547;SDS011;15750;49.600;8.746;2022-10-01T15:25:28;2.30;;;1.52;;
28547;SDS011;15750;49.600;8.746;2022-10-01T15:27:59;2.67;;;1.70;;
28547;SDS011;15750;49.600;8.746;2022-10-01T15:30:28;5.07;;;1.73;;
28547;SDS011;15750;49.600;8.746;2022-10-01T15:33:10;2.08;;;1.67;;
28547;SDS011;15750;49.600;8.746;2022-10-01T15:35:54;3.17;;;1.50;;
28547;SDS011;15750;49.600;8.746;2022-10-01T15:38:24;2.50;;;1.58;;
28547;SDS011;15750;49.600;8.746;2022-10-01T15:40:57;3.47;;;1.70;;
28547;SDS011;15750;49.600;8.746;2022-10-01T15:43:48;2.45;;;1.88;;
28547;SDS011;15750;49.600;8.746;2022-10-01T15:46:20;1.80;;;1.70;;
28547;SDS011;15750;49.600;8.746;2022-10-01T15:51:48;2.75;;;1.70;;
28547;SDS011;15750;49.600;8.746;2022-10-01T15:54:34;3.83;;;2.15;;
28547;SDS011;15750;49.600;8.746;2022-10-01T15:57:04;4.90;;;2.10;;
28547;SDS011;15750;49.600;8.746;2022-10-01T15:59:34;2.17;;;1.95;;
28547;SDS011;15750;49.600;8.746;2022-10-01T16:02:07;5.15;;;4.22;;
28547;SDS011;15750;49.600;8.746;2022-10-01T16:04:44;5.70;;;2.80;;
28547;SDS011;15750;49.600;8.746;2022-10-01T16:07:19;3.63;;;2.45;;
28547;SDS011;15750;49.600;8.746;2022-10-01T16:09:54;3.33;;;2.38;;
28547;SDS011;15750;49.600;8.746;2022-10-01T16:12:25;3.40;;;2.38;;
28547;SDS011;15750;49.600;8.746;2022-10-01T16:14:56;3.15;;;2.85;;
28547;SDS011;15750;49.600;8.746;2022-10-01T16:17:30;3.63;;;2.65;;
28547;SDS011;15750;49.600;8.746;2022-10-01T16:20:01;2.42;;;2.22;;
28547;SDS011;15750;49.600;8.746;2022-10-01T16:26:03;5.65;;;2.20;;
28547;SDS011;15750;49.600;8.746;2022-10-01T16:28:55;3.63;;;2.20;;